Terminal Aerodrome Forecast
Issued by NWS Pocatello, ID

Home | Current Version | Previous Version | Text Only | Print | Product List | Glossary On
Versions: 1 2 3 4 5 6 7 8 9 10 11 12 13
000
FTUS45 KPIH 311900 AAA
TAFIDA
TAF AMD
KIDA 311920Z 3119/0118 VRB05KT P6SM VCTS SCT080 SCT120CB
     FM010300 VRB05KT P6SM VCTS FEW100 SCT150CB=

USA.gov is the U.S. government's official web portal to all federal, state and local government web resources and services.